Whitewater, Montana
Current Conditions -  °F | °C
As of 10:53 PM on Thursday 27 Nov 2014 (Local Time) from KGGW Reporting Station
Haze Haze  
Wind Chill: 10°   Ceiling: 300
Heat Index: 23°   Visibility: 4mi
Dew Point: 21°   Wind: 15mph
Humidity: 92%   Direction: 110°ESE
Pressure: 29.69"   Gusts: NA
Location:  48.76°N, 107.62°W
Report Text: KGGW 280553Z AUTO 11013KT 4SM BR OVC003 M05/M06 A2969 RMK AO2 SLP087 I1000 I6000 T10501061 11033 21050 58013
Loading
Personal Weather Stations






























Interactive Weather Map New forecast layout! Learn more

10-Day Weather Forecast

Advertisements
Track Severe Weather on mobile